createdAt,value
2023-04-17T00:01:05.591Z,40.13
2023-04-17T00:03:33.090Z,46.93
2023-04-17T00:06:00.454Z,40.30
2023-04-17T00:08:27.597Z,34.90
2023-04-17T00:11:06.524Z,45.30
2023-04-17T00:13:34.762Z,39.47
2023-04-17T00:16:02.100Z,34.87
2023-04-17T00:18:29.452Z,34.67
2023-04-17T00:20:56.995Z,33.77
2023-04-17T00:23:25.736Z,36.07
2023-04-17T00:25:52.818Z,41.53
2023-04-17T00:28:20.065Z,41.43
2023-04-17T00:30:47.331Z,37.30
2023-04-17T00:33:14.781Z,37.67
2023-04-17T00:35:41.905Z,39.93
2023-04-17T00:38:09.423Z,38.67
2023-04-17T00:40:36.669Z,39.77
2023-04-17T00:43:06.594Z,46.57
2023-04-17T00:45:34.749Z,50.03
2023-04-17T00:48:04.023Z,54.93
2023-04-17T00:50:31.669Z,43.27
2023-04-17T00:52:59.666Z,42.33
2023-04-17T00:55:28.379Z,47.43
2023-04-17T00:57:56.708Z,50.93
2023-04-17T01:00:24.545Z,54.67
2023-04-17T01:02:51.897Z,48.73
2023-04-17T01:05:19.182Z,42.63
2023-04-17T01:07:46.699Z,46.73
2023-04-17T01:10:13.967Z,44.33
2023-04-17T01:12:41.495Z,44.70
2023-04-17T01:15:09.117Z,39.10
2023-04-17T01:17:36.304Z,46.50
2023-04-17T01:20:07.927Z,46.80
2023-04-17T01:22:35.267Z,50.13
2023-04-17T01:25:02.673Z,38.47
2023-04-17T01:27:35.792Z,45.30
2023-04-17T01:30:03.046Z,42.93
2023-04-17T01:32:33.996Z,48.73
2023-04-17T01:35:01.298Z,42.40
2023-04-17T01:37:28.366Z,46.77
2023-04-17T01:39:56.064Z,41.80
2023-04-17T01:42:23.659Z,45.40
2023-04-17T01:44:50.853Z,47.37
2023-04-17T01:47:18.763Z,47.90
2023-04-17T01:49:45.973Z,41.37
2023-04-17T01:52:13.789Z,41.30
2023-04-17T01:54:40.896Z,47.67
2023-04-17T01:57:08.009Z,45.57
2023-04-17T01:59:35.160Z,47.43
2023-04-17T02:02:02.361Z,45.87
2023-04-17T02:04:29.794Z,56.77
2023-04-17T02:06:56.961Z,48.47
2023-04-17T02:09:24.182Z,50.97
2023-04-17T02:11:51.253Z,58.50
2023-04-17T02:14:19.361Z,47.17
2023-04-17T02:16:46.440Z,45.10
2023-04-17T02:19:13.954Z,53.13
2023-04-17T02:21:41.275Z,53.23
2023-04-17T02:24:08.414Z,52.40
2023-04-17T02:26:37.256Z,58.93
2023-04-17T02:29:05.513Z,43.97
2023-04-17T02:31:32.710Z,49.40
2023-04-17T02:33:59.788Z,46.67
2023-04-17T02:36:27.621Z,44.40
2023-04-17T02:38:54.988Z,47.93
2023-04-17T02:41:22.077Z,51.30
2023-04-17T02:43:50.409Z,64.50
2023-04-17T02:46:18.436Z,67.37
2023-04-17T02:48:45.708Z,65.70
2023-04-17T02:51:13.470Z,50.23
2023-04-17T02:53:41.285Z,53.47
2023-04-17T02:56:08.552Z,51.53
2023-04-17T02:58:36.429Z,54.50
2023-04-17T03:01:06.888Z,62.83
2023-04-17T03:03:42.019Z,88.80
2023-04-17T03:06:11.935Z,80.93
2023-04-17T03:08:39.058Z,77.23
2023-04-17T03:11:06.885Z,79.40
2023-04-17T03:13:38.418Z,86.87
2023-04-17T03:16:06.407Z,75.60
2023-04-17T03:18:39.256Z,62.37
2023-04-17T03:21:06.947Z,60.17
2023-04-17T03:23:34.502Z,74.50
2023-04-17T03:26:02.646Z,81.63
2023-04-17T03:28:32.551Z,73.37
2023-04-17T03:31:01.128Z,76.10
2023-04-17T03:33:28.232Z,94.00
2023-04-17T03:35:58.147Z,87.93
2023-04-17T03:38:25.278Z,138.93
2023-04-17T03:40:53.851Z,70.90
2023-04-17T03:43:23.562Z,61.30
2023-04-17T03:45:51.582Z,56.37
2023-04-17T03:48:19.250Z,63.17
2023-04-17T03:50:48.273Z,54.47
2023-04-17T03:53:15.632Z,48.07
2023-04-17T03:55:42.934Z,51.80
2023-04-17T03:58:16.535Z,49.80
2023-04-17T04:00:45.674Z,68.13
2023-04-17T04:03:14.143Z,54.53
2023-04-17T04:05:48.401Z,54.80
2023-04-17T04:08:15.785Z,55.77
2023-04-17T04:10:47.643Z,52.90
2023-04-17T04:13:20.545Z,48.70
2023-04-17T04:15:53.408Z,68.67
2023-04-17T04:18:22.944Z,56.77
2023-04-17T04:20:50.004Z,84.33
2023-04-17T04:23:25.172Z,87.07
2023-04-17T04:25:56.915Z,69.43
2023-04-17T04:28:48.740Z,60.70
2023-04-17T04:31:21.617Z,59.43
2023-04-17T04:33:55.190Z,58.40
2023-04-17T04:36:23.111Z,74.67
2023-04-17T04:38:59.963Z,89.27
2023-04-17T04:41:37.117Z,94.33
2023-04-17T04:44:08.024Z,78.38
2023-04-17T04:46:38.014Z,58.37
2023-04-17T04:49:05.613Z,48.10
2023-04-17T04:51:33.919Z,60.23
2023-04-17T04:54:03.616Z,73.57
2023-04-17T04:56:33.034Z,63.33
2023-04-17T04:59:00.623Z,93.30
2023-04-17T05:01:29.883Z,56.83
2023-04-17T05:03:57.424Z,66.60
2023-04-17T05:06:28.847Z,53.00
2023-04-17T05:09:00.905Z,49.33
2023-04-17T05:11:28.257Z,34.63
2023-04-17T05:13:56.462Z,32.67
2023-04-17T05:16:28.315Z,48.17
2023-04-17T05:18:56.219Z,54.27
2023-04-17T05:21:58.767Z,40.50
2023-04-17T05:24:26.152Z,48.03
2023-04-17T05:26:54.163Z,49.87
2023-04-17T05:29:21.185Z,50.77
2023-04-17T05:31:48.294Z,62.67
2023-04-17T05:34:35.352Z,74.77
2023-04-17T05:37:03.648Z,74.40
2023-04-17T05:39:30.766Z,71.67
2023-04-17T05:41:58.104Z,59.40
2023-04-17T05:44:25.169Z,67.70
2023-04-17T05:46:52.475Z,64.97
2023-04-17T05:49:19.551Z,64.57
2023-04-17T05:51:46.969Z,55.80
2023-04-17T05:54:14.252Z,36.87
2023-04-17T05:56:41.799Z,30.97
2023-04-17T05:59:08.869Z,26.70
2023-04-17T06:01:36.537Z,26.63
2023-04-17T06:04:04.173Z,27.93
2023-04-17T06:06:31.900Z,23.97
2023-04-17T06:08:59.233Z,28.20
2023-04-17T06:11:27.273Z,29.10
2023-04-17T06:13:54.383Z,29.10
2023-04-17T06:16:22.711Z,39.43
2023-04-17T06:18:49.916Z,42.40
2023-04-17T06:21:17.066Z,51.30
2023-04-17T06:23:44.149Z,42.87
2023-04-17T06:26:12.424Z,41.63
2023-04-17T06:28:40.572Z,56.27
2023-04-17T06:31:07.878Z,43.00
2023-04-17T06:33:35.060Z,66.67
2023-04-17T06:36:02.929Z,55.20
2023-04-17T06:38:40.154Z,60.40
2023-04-17T06:41:08.025Z,41.60
2023-04-17T06:43:37.208Z,44.80
2023-04-17T06:46:13.557Z,44.83
2023-04-17T06:48:40.751Z,60.33
2023-04-17T06:51:07.854Z,40.83
2023-04-17T06:53:35.136Z,35.07
2023-04-17T06:56:02.196Z,41.60
2023-04-17T06:58:29.312Z,36.30
2023-04-17T07:00:56.844Z,30.70
2023-04-17T07:03:24.318Z,25.87
2023-04-17T07:05:51.477Z,34.97
2023-04-17T07:08:22.409Z,28.57
2023-04-17T07:10:49.849Z,22.43
2023-04-17T07:13:16.886Z,19.83
2023-04-17T07:15:44.182Z,17.23
2023-04-17T07:18:11.487Z,19.17
2023-04-17T07:20:38.643Z,18.90
2023-04-17T07:23:05.808Z,19.70
2023-04-17T07:25:32.916Z,22.63
2023-04-17T07:28:00.109Z,23.30
2023-04-17T07:30:28.701Z,19.90
2023-04-17T07:32:55.758Z,25.00
2023-04-17T07:35:23.318Z,25.43
2023-04-17T07:37:50.739Z,18.23
2023-04-17T07:40:18.147Z,21.00
2023-04-17T07:42:45.406Z,23.20
2023-04-17T07:45:12.526Z,20.77
2023-04-17T07:47:39.596Z,19.33
2023-04-17T07:50:07.779Z,19.37
2023-04-17T07:52:34.856Z,20.87
2023-04-17T07:55:01.989Z,19.07
2023-04-17T07:57:29.060Z,14.07
2023-04-17T07:59:56.673Z,15.53
2023-04-17T08:02:23.880Z,14.47
2023-04-17T08:04:52.357Z,11.07
2023-04-17T08:07:20.453Z,7.20
2023-04-17T08:09:47.675Z,6.63
2023-04-17T08:12:14.717Z,8.50
2023-04-17T08:14:43.764Z,8.03
2023-04-17T08:17:11.004Z,7.10
2023-04-17T08:19:38.073Z,7.00
2023-04-17T08:22:06.285Z,8.67
2023-04-17T08:24:33.486Z,5.80
2023-04-17T08:27:00.655Z,9.13
2023-04-17T08:29:27.918Z,11.30
2023-04-17T08:32:10.347Z,7.70
2023-04-17T08:34:40.475Z,6.83
2023-04-17T08:37:07.544Z,6.00
2023-04-17T08:39:34.748Z,5.97
2023-04-17T08:42:07.116Z,5.93
2023-04-17T08:44:34.280Z,4.40
2023-04-17T08:47:02.562Z,4.60
2023-04-17T08:49:30.224Z,6.27
2023-04-17T08:51:57.275Z,7.10
2023-04-17T08:54:24.372Z,6.37
2023-04-17T08:56:51.449Z,5.43
2023-04-17T08:59:18.678Z,4.37
2023-04-17T09:02:21.582Z,4.43
2023-04-17T09:04:49.178Z,3.40
2023-04-17T09:07:16.784Z,3.93
2023-04-17T09:09:54.242Z,4.27
2023-04-17T09:12:26.086Z,5.27
2023-04-17T09:14:53.500Z,4.03
2023-04-17T09:17:21.768Z,4.73
2023-04-17T09:20:09.260Z,4.03
2023-04-17T09:22:39.031Z,3.73
2023-04-17T09:25:19.346Z,5.47
2023-04-17T09:27:47.097Z,4.47
2023-04-17T09:30:14.442Z,3.60
2023-04-17T09:32:41.793Z,4.43
2023-04-17T09:35:09.105Z,7.50
2023-04-17T09:37:54.011Z,3.63
2023-04-17T09:40:25.408Z,3.90
2023-04-17T09:43:04.047Z,3.77
2023-04-17T09:45:35.814Z,4.13
2023-04-17T09:48:08.432Z,3.97
2023-04-17T09:50:38.469Z,3.77
2023-04-17T09:53:07.450Z,3.50
2023-04-17T09:55:36.971Z,4.77
2023-04-17T09:58:06.331Z,5.87
2023-04-17T10:00:33.525Z,4.30
2023-04-17T10:03:00.936Z,4.23
2023-04-17T10:05:29.949Z,4.60
2023-04-17T10:07:57.430Z,6.43
2023-04-17T10:10:33.955Z,4.40
2023-04-17T10:13:03.608Z,5.40
2023-04-17T10:15:31.431Z,4.43
2023-04-17T10:18:25.365Z,6.17
2023-04-17T10:20:54.128Z,3.60
2023-04-17T10:23:29.929Z,4.77
2023-04-17T10:26:42.340Z,5.17
2023-04-17T10:29:09.546Z,3.63
2023-04-17T10:32:14.051Z,10.10
2023-04-17T10:34:43.309Z,4.27
2023-04-17T10:37:15.523Z,3.77
2023-04-17T10:39:55.737Z,3.60
2023-04-17T10:42:23.977Z,4.17
2023-04-17T10:44:52.308Z,5.23
2023-04-17T10:47:22.806Z,5.53
2023-04-17T10:49:51.860Z,4.50
2023-04-17T10:52:41.472Z,3.40
2023-04-17T10:55:11.174Z,3.77
2023-04-17T10:58:13.921Z,3.50
2023-04-17T11:00:51.547Z,3.97
2023-04-17T11:03:22.420Z,4.87
2023-04-17T11:05:49.591Z,5.20
2023-04-17T11:08:16.698Z,4.20
2023-04-17T11:10:44.319Z,2.90
2023-04-17T11:13:11.359Z,3.63
2023-04-17T11:15:38.591Z,5.13
2023-04-17T11:18:05.751Z,4.57
2023-04-17T11:20:36.435Z,2.90
2023-04-17T11:23:05.160Z,2.70
2023-04-17T11:25:34.461Z,3.53
2023-04-17T11:28:05.983Z,4.07
2023-04-17T11:30:37.941Z,3.30
2023-04-17T11:33:07.893Z,2.63
2023-04-17T11:35:40.511Z,3.10
2023-04-17T11:38:22.193Z,2.70
2023-04-17T11:40:54.573Z,2.73
2023-04-17T11:43:23.656Z,3.03
2023-04-17T11:45:52.532Z,2.20
2023-04-17T11:48:27.526Z,5.17
2023-04-17T11:51:01.295Z,2.37
2023-04-17T11:53:29.917Z,2.00
2023-04-17T11:56:14.477Z,1.90
2023-04-17T11:58:49.519Z,4.70
2023-04-17T12:01:17.369Z,3.00
2023-04-17T12:03:45.617Z,4.03
2023-04-17T12:06:13.620Z,1.90
2023-04-17T12:08:51.829Z,1.70
2023-04-17T12:11:35.902Z,2.33
2023-04-17T12:14:05.529Z,2.50
2023-04-17T12:16:32.686Z,1.70
2023-04-17T12:18:59.862Z,1.87
2023-04-17T12:21:26.937Z,1.67
2023-04-17T12:23:54.053Z,2.03
2023-04-17T12:26:21.348Z,1.93
2023-04-17T12:28:48.465Z,3.80
2023-04-17T12:31:15.590Z,5.30
2023-04-17T12:33:42.882Z,3.07
2023-04-17T12:36:10.128Z,1.97
2023-04-17T12:38:37.263Z,2.10
2023-04-17T12:41:04.382Z,3.17
2023-04-17T12:43:33.643Z,2.00
2023-04-17T12:46:01.517Z,2.67
2023-04-17T12:48:30.747Z,2.00
2023-04-17T12:50:59.366Z,2.27
2023-04-17T12:53:26.464Z,1.70
2023-04-17T12:55:53.732Z,1.40
2023-04-17T12:58:20.868Z,1.60
2023-04-17T13:00:48.159Z,1.63
2023-04-17T13:03:15.617Z,2.07
2023-04-17T13:05:43.016Z,1.60
2023-04-17T13:08:15.022Z,1.43
2023-04-17T13:10:42.758Z,2.53
2023-04-17T13:13:10.306Z,1.73
2023-04-17T13:15:41.280Z,1.73
2023-04-17T13:18:10.577Z,1.83
2023-04-17T13:20:37.715Z,2.00
2023-04-17T13:23:04.842Z,2.87
2023-04-17T13:25:32.453Z,2.47
2023-04-17T13:28:00.244Z,2.13
2023-04-17T13:30:27.413Z,1.60
2023-04-17T13:32:54.556Z,2.20
2023-04-17T13:35:21.771Z,2.00
2023-04-17T13:37:49.078Z,1.50
2023-04-17T13:40:17.453Z,1.37
2023-04-17T13:42:44.668Z,1.40
2023-04-17T13:45:12.488Z,2.30
2023-04-17T13:47:39.607Z,2.13
2023-04-17T13:50:07.823Z,1.67
2023-04-17T13:52:34.894Z,1.60
2023-04-17T13:55:01.970Z,1.40
2023-04-17T13:57:29.006Z,2.00
2023-04-17T13:59:56.302Z,1.40
2023-04-17T14:02:23.616Z,2.00
2023-04-17T14:04:51.036Z,3.90
2023-04-17T14:07:18.450Z,2.57
2023-04-17T14:09:45.682Z,2.13
2023-04-17T14:12:16.765Z,1.60
2023-04-17T14:14:43.830Z,2.70
2023-04-17T14:17:11.004Z,1.83
2023-04-17T14:19:38.101Z,3.70
2023-04-17T14:22:05.166Z,1.83
2023-04-17T14:24:32.549Z,2.90
2023-04-17T14:27:01.175Z,1.77
2023-04-17T14:29:28.503Z,1.67
2023-04-17T14:31:55.646Z,1.50
2023-04-17T14:34:22.917Z,2.67
2023-04-17T14:36:51.886Z,1.60
2023-04-17T14:39:19.862Z,4.50
2023-04-17T14:41:47.028Z,3.13
2023-04-17T14:44:14.684Z,4.37
2023-04-17T14:46:42.045Z,2.77
2023-04-17T14:49:09.606Z,4.57
2023-04-17T14:51:36.659Z,5.17
2023-04-17T14:54:04.178Z,2.30
2023-04-17T14:56:31.298Z,3.60
2023-04-17T14:58:58.449Z,1.97
2023-04-17T15:01:25.751Z,2.43
2023-04-17T15:03:53.134Z,1.87
2023-04-17T15:06:20.638Z,3.07
2023-04-17T15:08:48.475Z,2.07
2023-04-17T15:11:16.236Z,2.00
2023-04-17T15:13:43.381Z,2.37
2023-04-17T15:16:11.006Z,1.70
2023-04-17T15:18:39.530Z,3.27
2023-04-17T15:21:07.014Z,3.47
2023-04-17T15:23:35.450Z,3.63
2023-04-17T15:26:02.624Z,1.43
2023-04-17T15:28:29.805Z,3.77
2023-04-17T15:30:57.017Z,1.27
2023-04-17T15:33:24.174Z,1.07
2023-04-17T15:35:58.836Z,1.20
2023-04-17T15:38:26.747Z,2.87
2023-04-17T15:40:54.218Z,1.30
2023-04-17T15:43:21.890Z,2.87
2023-04-17T15:45:49.556Z,1.17
2023-04-17T15:48:16.925Z,1.37
2023-04-17T15:50:44.402Z,0.93
2023-04-17T15:53:13.202Z,1.50
2023-04-17T15:55:41.474Z,1.40
2023-04-17T15:58:08.676Z,1.77
2023-04-17T16:00:35.824Z,1.70
2023-04-17T16:03:03.701Z,2.00
2023-04-17T16:05:31.285Z,3.13
2023-04-17T16:07:58.728Z,3.13
2023-04-17T16:10:26.007Z,2.83
2023-04-17T16:12:56.806Z,2.20
2023-04-17T16:15:23.915Z,3.13
2023-04-17T16:17:50.998Z,3.20
2023-04-17T16:20:18.330Z,3.00
2023-04-17T16:22:45.384Z,3.90
2023-04-17T16:25:12.735Z,2.40
2023-04-17T16:27:40.464Z,2.10
2023-04-17T16:30:10.076Z,3.50
2023-04-17T16:32:37.356Z,1.83
2023-04-17T16:35:11.834Z,1.53
2023-04-17T16:37:38.957Z,2.97
2023-04-17T16:40:07.029Z,1.70
2023-04-17T16:42:34.520Z,2.43
2023-04-17T16:45:01.712Z,1.67
2023-04-17T16:47:32.999Z,1.57
2023-04-17T16:50:00.302Z,2.03
2023-04-17T16:52:27.421Z,1.30
2023-04-17T16:54:54.505Z,1.73
2023-04-17T16:57:21.698Z,1.77
2023-04-17T16:59:48.874Z,1.23
2023-04-17T17:02:16.058Z,1.97
2023-04-17T17:04:45.081Z,3.07
2023-04-17T17:07:12.302Z,1.50
2023-04-17T17:09:39.417Z,3.60
2023-04-17T17:12:06.764Z,3.63
2023-04-17T17:14:34.003Z,2.07
2023-04-17T17:17:01.264Z,2.47
2023-04-17T17:19:28.509Z,1.43
2023-04-17T17:21:55.589Z,3.23
2023-04-17T17:24:22.712Z,1.80
2023-04-17T17:26:49.753Z,1.63
2023-04-17T17:29:16.864Z,1.37
2023-04-17T17:31:43.965Z,2.53
2023-04-17T17:34:25.162Z,1.93
2023-04-17T17:36:53.594Z,2.03
2023-04-17T17:39:22.185Z,1.40
2023-04-17T17:41:49.690Z,1.60
2023-04-17T17:44:16.928Z,3.60
2023-04-17T17:46:44.374Z,1.67
2023-04-17T17:49:11.434Z,1.57
2023-04-17T17:51:38.582Z,1.47
2023-04-17T17:54:05.712Z,2.03
2023-04-17T17:56:32.977Z,1.40
2023-04-17T17:59:00.020Z,1.53
2023-04-17T18:01:27.146Z,1.30
2023-04-17T18:03:54.458Z,1.33
2023-04-17T18:06:21.884Z,1.40
2023-04-17T18:08:49.199Z,1.53
2023-04-17T18:11:16.531Z,1.43
2023-04-17T18:13:43.648Z,1.57
2023-04-17T18:16:10.830Z,1.10
2023-04-17T18:18:38.888Z,2.10
2023-04-17T18:21:07.227Z,1.37
2023-04-17T18:23:34.582Z,1.00
2023-04-17T18:26:02.911Z,1.30
2023-04-17T18:28:30.327Z,1.03
2023-04-17T18:30:57.654Z,1.23
2023-04-17T18:33:24.936Z,1.30
2023-04-17T18:35:52.104Z,1.30
2023-04-17T18:38:19.216Z,1.60
2023-04-17T18:40:46.284Z,1.27
2023-04-17T18:43:13.357Z,1.30
2023-04-17T18:45:40.489Z,1.80
2023-04-17T18:48:07.575Z,1.30
2023-04-17T18:50:34.857Z,1.30
2023-04-17T18:53:02.373Z,1.60
2023-04-17T18:55:29.894Z,1.40
2023-04-17T18:57:56.948Z,2.00
2023-04-17T19:00:24.122Z,1.20
2023-04-17T19:02:51.328Z,1.20
2023-04-17T19:05:20.449Z,1.77
2023-04-17T19:07:51.916Z,1.60
2023-04-17T19:10:19.380Z,1.60
2023-04-17T19:12:46.958Z,1.20
2023-04-17T19:15:14.178Z,1.43
2023-04-17T19:17:41.464Z,1.57
2023-04-17T19:20:09.680Z,1.40
2023-04-17T19:22:36.792Z,1.30
2023-04-17T19:25:04.211Z,1.67
2023-04-17T19:27:31.227Z,1.33
2023-04-17T19:29:58.383Z,1.77
2023-04-17T19:32:25.851Z,2.43
2023-04-17T19:34:53.036Z,1.70
2023-04-17T19:37:20.130Z,4.53
2023-04-17T19:39:47.189Z,2.37
2023-04-17T19:42:14.240Z,2.23
2023-04-17T19:44:41.424Z,2.00
2023-04-17T19:47:08.452Z,1.73
2023-04-17T19:49:35.642Z,1.67
2023-04-17T19:52:03.096Z,2.23
2023-04-17T19:54:30.276Z,1.57
2023-04-17T19:56:57.308Z,1.53
2023-04-17T19:59:24.870Z,1.37
2023-04-17T20:01:52.018Z,2.57
2023-04-17T20:04:19.452Z,2.10
2023-04-17T20:06:46.735Z,2.17
2023-04-17T20:09:14.945Z,2.10
2023-04-17T20:11:42.511Z,2.93
2023-04-17T20:14:09.621Z,1.73
2023-04-17T20:16:36.882Z,3.80
2023-04-17T20:19:04.349Z,2.20
2023-04-17T20:21:31.433Z,2.43
2023-04-17T20:23:59.652Z,2.27
2023-04-17T20:26:27.014Z,2.73
2023-04-17T20:28:57.156Z,3.27
2023-04-17T20:31:24.310Z,2.27
2023-04-17T20:33:51.738Z,3.20
2023-04-17T20:36:18.862Z,5.03
2023-04-17T20:38:46.258Z,3.03
2023-04-17T20:41:13.448Z,6.37
2023-04-17T20:43:40.567Z,3.03
2023-04-17T20:46:08.086Z,3.23
2023-04-17T20:48:35.274Z,3.17
2023-04-17T20:51:05.673Z,2.33
2023-04-17T20:53:33.012Z,2.63
2023-04-17T20:56:00.193Z,2.43
2023-04-17T20:58:27.432Z,3.30
2023-04-17T21:01:01.549Z,3.77
2023-04-17T21:03:33.742Z,3.70
2023-04-17T21:06:01.114Z,4.00
2023-04-17T21:08:28.416Z,5.33
2023-04-17T21:10:55.727Z,3.80
2023-04-17T21:13:23.536Z,2.93
2023-04-17T21:15:50.618Z,2.80
2023-04-17T21:18:17.756Z,3.20
2023-04-17T21:20:44.788Z,5.67
2023-04-17T21:23:11.911Z,5.10
2023-04-17T21:25:39.099Z,5.67
2023-04-17T21:28:06.186Z,2.80
2023-04-17T21:30:33.370Z,2.83
2023-04-17T21:33:00.568Z,5.17
2023-04-17T21:35:27.745Z,3.97
2023-04-17T21:37:55.067Z,3.07
2023-04-17T21:40:22.095Z,5.53
2023-04-17T21:42:49.232Z,4.27
2023-04-17T21:45:16.416Z,3.93
2023-04-17T21:47:43.586Z,4.17
2023-04-17T21:50:11.150Z,4.23
2023-04-17T21:52:38.289Z,13.23
2023-04-17T21:55:07.829Z,4.93
2023-04-17T21:57:35.166Z,3.73
2023-04-17T22:00:03.591Z,4.93
2023-04-17T22:02:33.776Z,3.53
2023-04-17T22:05:00.862Z,2.90
2023-04-17T22:07:28.052Z,3.37
2023-04-17T22:09:55.894Z,5.10
2023-04-17T22:12:22.928Z,7.60
2023-04-17T22:14:49.981Z,3.93
2023-04-17T22:17:17.023Z,3.80
2023-04-17T22:19:44.259Z,4.10
2023-04-17T22:22:48.809Z,3.50
2023-04-17T22:25:53.199Z,3.83
2023-04-17T22:28:39.141Z,4.77
2023-04-17T22:31:43.439Z,3.77
2023-04-17T22:34:48.699Z,3.90
2023-04-17T22:38:11.745Z,4.03
2023-04-17T22:41:17.004Z,3.93
2023-04-17T22:44:21.992Z,3.77
2023-04-17T22:46:49.031Z,3.87
2023-04-17T22:49:16.020Z,3.73
2023-04-17T22:51:43.373Z,5.43
2023-04-17T22:54:21.380Z,5.10
2023-04-17T22:56:48.982Z,4.07
2023-04-17T22:59:15.977Z,3.83
2023-04-17T23:01:43.865Z,3.57
2023-04-17T23:04:10.901Z,3.43
2023-04-17T23:06:38.138Z,3.77
2023-04-17T23:09:05.226Z,3.53
2023-04-17T23:11:33.416Z,4.43
2023-04-17T23:14:01.906Z,4.03
2023-04-17T23:16:32.666Z,4.97
2023-04-17T23:18:59.743Z,4.80
2023-04-17T23:21:26.830Z,4.33
2023-04-17T23:23:54.003Z,3.57
2023-04-17T23:26:21.401Z,4.30
2023-04-17T23:28:48.453Z,3.60
2023-04-17T23:31:15.740Z,3.63
2023-04-17T23:33:42.791Z,5.60
2023-04-17T23:36:09.914Z,4.77
2023-04-17T23:38:36.998Z,4.13
2023-04-17T23:41:04.156Z,5.17
2023-04-17T23:43:31.346Z,4.50
2023-04-17T23:46:00.506Z,4.67
2023-04-17T23:48:28.210Z,6.50
2023-04-17T23:50:55.810Z,7.47
2023-04-17T23:53:23.020Z,4.23
2023-04-17T23:55:50.041Z,5.17
2023-04-17T23:58:17.225Z,6.33
